^^
Meteo Knjazevac Station Historical Data
Daily Summary for June 17, 2021 Units:  English    Metric   Both
Daily Weekly Monthly Yearly Custom
  High: Low: Average:
Temperature: 99.3 °F 64.4 °F 78.2 °F
Dew Point: 69.5 °F 51.9 °F 60.2 °F
Humidity: 81% 30% 57%
Wind Speed: 13mph 0mph 3mph
Wind Gust: 22mph - -
Wind- - WSW
Pressure: 30.04 in 29.86 in -
Precipitation: 0.02 in    
Historical Graphs
 
 
Tabular Data for June 17, 2021
Time Temperature Dew Point Pressure Wind Wind Speed Wind Gust Humidity Rainfall Rate (Hourly) solar Conditions
00:00 68.4 °F 56.1 °F 29.95 in West 2 mph 7 mph 65% 0.00 in 0 W/m2
00:10 68 °F 55.8 °F 29.95 in WSW 2 mph 5 mph 65% 0.00 in 0 W/m2
00:20 67.3 °F 55.9 °F 29.95 in West 2 mph 6 mph 67% 0.00 in 0 W/m2
00:30 67.3 °F 55.9 °F 29.95 in West 2 mph 5 mph 67% 0.00 in 0 W/m2
00:40 66.9 °F 56 °F 29.94 in West 1 mph 3 mph 68% 0.00 in 0 W/m2
00:50 66.4 °F 55.9 °F 29.94 in WSW 1 mph 5 mph 69% 0.00 in 0 W/m2
01:00 66 °F 55.6 °F 29.94 in WSW 1 mph 4 mph 69% 0.00 in 0 W/m2
01:10 65.8 °F 55.4 °F 29.94 in Calm   4 mph 69% 0.00 in 0 W/m2
01:20 65.7 °F 55.6 °F 29.94 in WSW 1 mph 3 mph 70% 0.00 in 0 W/m2
01:30 65.5 °F 55 °F 29.94 in West 3 mph 6 mph 69% 0.00 in 0 W/m2
01:40 65.7 °F 55.2 °F 29.94 in West 3 mph 8 mph 69% 0.00 in 0 W/m2
01:50 65.7 °F 55.2 °F 29.94 in West 3 mph 5 mph 69% 0.00 in 0 W/m2
02:00 65.7 °F 55.2 °F 29.94 in WSW 1 mph 3 mph 69% 0.00 in 0 W/m2
02:10 65.5 °F 55 °F 29.93 in NW 1 mph 5 mph 69% 0.00 in 0 W/m2
02:20 65.5 °F 55 °F 29.93 in West 1 mph 2 mph 69% 0.00 in 0 W/m2
02:30 65.1 °F 54.7 °F 29.93 in West 3 mph 5 mph 69% 0.00 in 0 W/m2
02:40 64.9 °F 54.5 °F 29.94 in WNW 1 mph 5 mph 69% 0.00 in 0 W/m2
02:50 64.9 °F 54.1 °F 29.94 in WNW 1 mph 2 mph 68% 0.00 in 0 W/m2
03:00 64.8 °F 54.3 °F 29.94 in NE 2 mph 6 mph 69% 0.00 in 0 W/m2
03:10 64.8 °F 54.3 °F 29.94 in NNE 1 mph 5 mph 69% 0.00 in 0 W/m2
03:20 64.8 °F 54.3 °F 29.94 in WNW 1 mph 4 mph 69% 0.00 in 0 W/m2
03:30 64.8 °F 53.9 °F 29.94 in NW 1 mph 3 mph 68% 0.00 in 0 W/m2
03:40 64.6 °F 53.4 °F 29.94 in Calm   3 mph 67% 0.00 in 0 W/m2
03:50 64.4 °F 53.2 °F 29.94 in WNW 1 mph 2 mph 67% 0.00 in 0 W/m2
04:00 64.4 °F 52.4 °F 29.94 in Calm   3 mph 65% 0.00 in 0 W/m2
04:10 64.4 °F 53.2 °F 29.93 in NW 1 mph 4 mph 67% 0.00 in 0 W/m2
04:20 64.4 °F 53.2 °F 29.93 in NNW 1 mph 4 mph 67% 0.00 in 0 W/m2
04:30 64.6 °F 52.6 °F 29.93 in NW 2 mph 5 mph 65% 0.00 in 0 W/m2
04:40 65.3 °F 52.8 °F 29.93 in NNW 1 mph 5 mph 64% 0.00 in 0 W/m2
04:50 65.5 °F 52.5 °F 29.93 in NW 1 mph 5 mph 63% 0.00 in 0 W/m2
05:00 66 °F 52.6 °F 29.93 in WNW 1 mph 8 mph 62% 0.00 in 0 W/m2
05:10 66.2 °F 51.9 °F 29.93 in WNW 1 mph 5 mph 60% 0.00 in 0 W/m2
05:20 66.4 °F 52.1 °F 29.93 in WNW 2 mph 3 mph 60% 0.00 in 0 W/m2
05:30 66 °F 53.1 °F 29.94 in WSW 2 mph 3 mph 63% 0.00 in 0 W/m2
05:40 65.5 °F 52.5 °F 29.94 in NW 2 mph 5 mph 63% 0.00 in 3 W/m2
05:50 65.7 °F 52.3 °F 29.94 in NW 2 mph 5 mph 62% 0.00 in 6 W/m2
06:00 65.7 °F 53.1 °F 29.94 in NW 1 mph 3 mph 64% 0.00 in 11 W/m2
06:10 65.3 °F 52.8 °F 29.94 in Calm   2 mph 64% 0.00 in 20 W/m2
06:20 64.9 °F 52.9 °F 29.94 in WSW 2 mph 3 mph 65% 0.00 in 29 W/m2
06:30 64.4 °F 53.2 °F 29.94 in West 2 mph 5 mph 67% 0.00 in 42 W/m2
06:40 64.6 °F 52.5 °F 29.94 in West 2 mph 5 mph 65% 0.00 in 64 W/m2
06:50 64.6 °F 53.4 °F 29.94 in WNW 1 mph 3 mph 67% 0.00 in 87 W/m2
07:00 64.8 °F 53.5 °F 29.94 in West 1 mph 3 mph 67% 0.00 in 107 W/m2
07:10 64.6 °F 53.8 °F 29.94 in Calm   3 mph 68% 0.00 in 129 W/m2
07:20 64.9 °F 54.1 °F 29.94 in West 2 mph 4 mph 68% 0.00 in 160 W/m2
07:30 65.5 °F 54.7 °F 29.94 in WNW 1 mph 5 mph 68% 0.00 in 185 W/m2
07:40 66.2 °F 55.3 °F 29.95 in West 1 mph 3 mph 68% 0.00 in 210 W/m2
07:50 66.7 °F 56.2 °F 29.95 in NW 1 mph 2 mph 69% 0.00 in 240 W/m2
08:00 67.5 °F 56.9 °F 29.95 in West 1 mph 3 mph 69% 0.00 in 272 W/m2
08:10 68.4 °F 57.4 °F 29.95 in WNW 1 mph 3 mph 68% 0.00 in 304 W/m2
08:20 69.3 °F 57.8 °F 29.94 in SW 1 mph 2 mph 67% 0.00 in 327 W/m2
08:30 70.2 °F 58.3 °F 29.94 in Calm   2 mph 66% 0.00 in 363 W/m2
08:40 71.2 °F 58.9 °F 29.94 in WNW 1 mph 2 mph 65% 0.00 in 399 W/m2
08:50 72.4 °F 58.6 °F 29.94 in WNW 1 mph 3 mph 62% 0.00 in 432 W/m2
09:00 74.5 °F 59.7 °F 29.94 in West 2 mph 5 mph 60% 0.00 in 465 W/m2
09:10 76.7 °F 61.3 °F 29.94 in West 1 mph 3 mph 59% 0.00 in 478 W/m2
09:20 78.6 °F 61.1 °F 29.94 in WNW 1 mph 3 mph 55% 0.00 in 506 W/m2
09:30 80.1 °F 63 °F 29.94 in Calm   2 mph 56% 0.00 in 536 W/m2
09:40 81.6 °F 63.3 °F 29.94 in WNW 1 mph 3 mph 54% 0.00 in 584 W/m2
09:50 83 °F 63.5 °F 29.93 in East 2 mph 7 mph 52% 0.00 in 600 W/m2
10:00 84.4 °F 63.2 °F 29.93 in SE 3 mph 6 mph 49% 0.00 in 639 W/m2
10:10 85.6 °F 63.7 °F 29.93 in SE 3 mph 6 mph 48% 0.00 in 651 W/m2
10:20 86.8 °F 64.1 °F 29.93 in ESE 3 mph 7 mph 47% 0.00 in 681 W/m2
10:30 87.8 °F 63.8 °F 29.93 in SSE 1 mph 6 mph 45% 0.00 in 715 W/m2
10:40 88.6 °F 64.5 °F 29.93 in SE 3 mph 7 mph 45% 0.00 in 725 W/m2
10:50 89.8 °F 65 °F 29.93 in ESE 2 mph 7 mph 44% 0.00 in 315 W/m2
11:00 90.7 °F 64.4 °F 29.93 in SE 3 mph 7 mph 42% 0.00 in 379 W/m2
11:10 91.4 °F 64.4 °F 29.92 in SSW 3 mph 7 mph 41% 0.00 in 291 W/m2
11:20 91.9 °F 64.2 °F 29.92 in SSW 1 mph 7 mph 40% 0.00 in 295 W/m2
11:30 92.4 °F 64.5 °F 29.92 in WSW 1 mph 6 mph 40% 0.00 in 535 W/m2
11:40 92.8 °F 64.2 °F 29.92 in North 1 mph 5 mph 39% 0.00 in 369 W/m2
11:50 93.6 °F 64.9 °F 29.92 in ESE 5 mph 9 mph 39% 0.00 in 841 W/m2
12:00 94.1 °F 64.6 °F 29.92 in WNW 6 mph 9 mph 38% 0.00 in 832 W/m2
12:10 94.2 °F 63.9 °F 29.92 in SW 5 mph 8 mph 37% 0.00 in 831 W/m2
12:20 94.5 °F 62.6 °F 29.91 in SW 6 mph 11 mph 35% 0.00 in 841 W/m2
12:30 94.6 °F 62.7 °F 29.91 in SW 6 mph 10 mph 35% 0.00 in 830 W/m2
12:40 95 °F 62.2 °F 29.91 in SW 3 mph 8 mph 34% 0.00 in 850 W/m2
12:50 95.7 °F 63.7 °F 29.91 in South 2 mph 6 mph 35% 0.00 in 846 W/m2
13:00 96.3 °F 63.3 °F 29.91 in SW 2 mph 8 mph 34% 0.00 in 830 W/m2
13:10 96.3 °F 63.3 °F 29.90 in WSW 2 mph 9 mph 34% 0.00 in 823 W/m2
13:20 96.5 °F 62.7 °F 29.90 in SSW 5 mph 7 mph 33% 0.00 in 806 W/m2
13:30 96.9 °F 63 °F 29.90 in SW 2 mph 7 mph 33% 0.00 in 818 W/m2
13:40 97.3 °F 63.4 °F 29.89 in SW 1 mph 6 mph 33% 0.00 in 829 W/m2
13:50 97.8 °F 63.8 °F 29.89 in SW 6 mph 10 mph 33% 0.00 in 813 W/m2
14:00 97.8 °F 63.8 °F 29.89 in SW 1 mph 9 mph 33% 0.00 in 808 W/m2
14:10 98.4 °F 61.6 °F 29.88 in SW 2 mph 7 mph 30% 0.00 in 816 W/m2
14:20 98.6 °F 61.8 °F 29.88 in SW 3 mph 7 mph 30% 0.00 in 697 W/m2
14:30 98.6 °F 61.8 °F 29.88 in ESE 3 mph 8 mph 30% 0.00 in 783 W/m2
14:40 98.4 °F 62.6 °F 29.88 in SSW 2 mph 6 mph 31% 0.00 in 765 W/m2
14:50 98.4 °F 62.6 °F 29.88 in SSW 5 mph 8 mph 31% 0.00 in 642 W/m2
15:00 98.4 °F 63.5 °F 29.87 in SSE 3 mph 9 mph 32% 0.00 in 724 W/m2
15:10 99 °F 63.9 °F 29.86 in SSW 5 mph 9 mph 32% 0.00 in 689 W/m2
15:20 99.1 °F 62.3 °F 29.86 in ENE 3 mph 10 mph 30% 0.00 in 673 W/m2
15:30 99.3 °F 62.4 °F 29.86 in SW 7 mph 13 mph 30% 0.00 in 568 W/m2
15:40 99.1 °F 62.3 °F 29.86 in WSW 3 mph 9 mph 30% 0.00 in 400 W/m2
15:50 99.1 °F 64.1 °F 29.86 in WSW 2 mph 5 mph 32% 0.00 in 461 W/m2
16:00 98.2 °F 63.3 °F 29.86 in WSW 2 mph 5 mph 32% 0.00 in 202 W/m2
16:10 97.5 °F 62.6 °F 29.86 in WSW 2 mph 5 mph 32% 0.00 in 205 W/m2
16:20 96.8 °F 63 °F 29.86 in WSW 3 mph 8 mph 33% 0.00 in 212 W/m2
16:30 95.9 °F 68.4 °F 29.87 in WNW 10 mph 17 mph 41% 0.00 in 452 W/m2
16:40 94.9 °F 68.9 °F 29.88 in West 6 mph 17 mph 43% 0.00 in 315 W/m2
16:50 94.1 °F 69.5 °F 29.88 in West 8 mph 14 mph 45% 0.00 in 408 W/m2
17:00 92.8 °F 68.3 °F 29.89 in West 9 mph 16 mph 45% 0.00 in 175 W/m2
17:10 91 °F 67.9 °F 29.90 in West 8 mph 21 mph 47% 0.00 in 177 W/m2
17:20 89.4 °F 67.1 °F 29.91 in West 13 mph 22 mph 48% 0.00 in 120 W/m2
17:30 87.9 °F 66.4 °F 29.91 in West 12 mph 20 mph 49% 0.00 in 80 W/m2
17:40 86.1 °F 66.4 °F 29.92 in West 12 mph 22 mph 52% 0.00 in 73 W/m2
17:50 84.6 °F 65.5 °F 29.92 in West 10 mph 22 mph 53% 0.00 in 74 W/m2
18:00 83.7 °F 65.3 °F 29.93 in West 8 mph 20 mph 54% 0.00 in 69 W/m2
18:10 83.2 °F 64.9 °F 29.93 in WNW 7 mph 13 mph 54% 0.00 in 67 W/m2
18:20 82.9 °F 64.6 °F 29.93 in WNW 7 mph 12 mph 54% 0.00 in 66 W/m2
18:30 82.6 °F 64.8 °F 29.93 in WNW 2 mph 10 mph 55% 0.00 in 56 W/m2
18:40 82.4 °F 64.6 °F 29.92 in West 1 mph 5 mph 55% 0.00 in 43 W/m2
18:50 82 °F 64.3 °F 29.93 in SW 1 mph 2 mph 55% 0.00 in 24 W/m2
19:00 81.9 °F 64.6 °F 29.93 in SW 2 mph 5 mph 56% 0.00 in 13 W/m2
19:10 81.7 °F 63.9 °F 29.94 in North 1 mph 6 mph 55% 0.00 in 8 W/m2
19:20 81.4 °F 63.7 °F 29.95 in SSW 1 mph 4 mph 55% 0.00 in 4 W/m2
19:30 81 °F 63.3 °F 29.95 in WSW 7 mph 12 mph 55% 0.00 in 2 W/m2
19:40 80.1 °F 64 °F 29.96 in SW 8 mph 14 mph 58% 0.00 in 0 W/m2
19:50 79.1 °F 63.5 °F 29.96 in WSW 8 mph 15 mph 59% 0.00 in 0 W/m2
20:00 78.4 °F 63.4 °F 29.96 in West 6 mph 16 mph 60% 0.00 in 0 W/m2
20:10 78.1 °F 64 °F 29.96 in WNW 3 mph 9 mph 62% 0.00 in 0 W/m2
20:20 76.8 °F 65.9 °F 29.96 in NW 7 mph 13 mph 69% 0.02 in 0 W/m2
20:30 75.3 °F 66 °F 29.96 in WSW 3 mph 13 mph 73% 0.00 in 0 W/m2
20:40 74.4 °F 66 °F 29.97 in WSW 6 mph 9 mph 75% 0.01 in 0 W/m2
20:50 73.1 °F 65.1 °F 29.97 in WSW 8 mph 13 mph 76% 0.00 in 0 W/m2
21:00 72.5 °F 64.1 °F 29.98 in WSW 6 mph 13 mph 75% 0.00 in 0 W/m2
21:10 71.9 °F 63.5 °F 29.99 in SW 6 mph 13 mph 75% 0.00 in 0 W/m2
21:20 71.1 °F 62.7 °F 30.00 in WSW 7 mph 13 mph 75% 0.00 in 0 W/m2
21:30 70.5 °F 63 °F 30.00 in WSW 6 mph 12 mph 77% 0.00 in 0 W/m2
21:40 70.5 °F 63 °F 30.00 in WSW 6 mph 10 mph 77% 0.00 in 0 W/m2
21:50 70.2 °F 61.6 °F 30.01 in SW 6 mph 10 mph 74% 0.00 in 0 W/m2
22:00 70.2 °F 61.9 °F 30.01 in SW 3 mph 7 mph 75% 0.00 in 0 W/m2
22:20 69.4 °F 63.4 °F 30.02 in South 3 mph 7 mph 81% 0.00 in 0 W/m2
22:50 68 °F 61.6 °F 30.03 in SSW 2 mph 6 mph 80% 0.00 in 0 W/m2
23:00 67.6 °F 61.2 °F 30.03 in South 2 mph 6 mph 80% 0.00 in 0 W/m2
23:10 67.3 °F 60.9 °F 30.03 in SSW 2 mph 5 mph 80% 0.00 in 0 W/m2
23:20 67.1 °F 61.1 °F 30.03 in SSW 2 mph 4 mph 81% 0.00 in 0 W/m2
23:30 66.7 °F 60.4 °F 30.03 in SW 2 mph 4 mph 80% 0.00 in 0 W/m2
23:40 66.6 °F 60.6 °F 30.03 in SW 2 mph 5 mph 81% 0.00 in 0 W/m2
23:50 66.4 °F 60.4 °F 30.04 in South 1 mph 5 mph 81% 0.00 in 0 W/m2
Knjazevac, Serbia
Compliments of Weather Underground - 2 mb